WAAA/UPG METAR and TAF weather

Enter ICAO airport designator
Station Type Date Time Source
WAAA METAR 2018/12/15 23:00 UTC NOAA

WAAA 152300Z VRB02KT 9000 FEW017CB SCT018 25/25 Q1011 NOSIG RMK CB IN APCH


Station Type Date Time Source
WAAA Decoded METAR 2018/12/15 23:00 UTC NOAA

Ujung Pandang / Hasanuddin, Indonesia (WAAA) 05-04S 119-33E 14M
Dec 15, 2018 - 06:00 PM EST / 2018.12.15 2300 UTC
Wind: Variable at 2 MPH (2 KT):0
Visibility: 5 mile(s):0
Sky conditions: partly cloudy
Weather: Cumulonimbus clouds observed
Temperature: 77 F (25 C)
Dew Point: 77 F (25 C)
Relative Humidity: 100%
Pressure (altimeter): 29.85 in. Hg (1011 hPa)
ob: WAAA 152300Z VRB02KT 9000 FEW017CB SCT018 25/25 Q1011 NOSIG RMK CB IN APCH
cycle: 23

Station Type Date Time Source
WAAA TAF 2018/12/15 18:18 UTC NOAA

TAF WAAA 151700Z 1518/1700 10005KT 8000 SCT019
TEMPO 1518/1520 5000 -TSRA FEW017CB
BECMG 1521/1523 9999
BECMG 1601/1603 33010KT


Example: see airport list